Time;durP1;ratioP1;P1;durP2;ratioP2;P2;SDS_P1;SDS_P2;PMS_P1;PMS_P2;Temp;Humidity;BMP_temperature;BMP_pressure;BME280_temperature;BME280_humidity;BME280_pressure;Samples;Min_cycle;Max_cycle;Signal;HPM_P1;HPM_P2
2021/05/13 00:01:54;;;;;;;21.03;15.90;;;12.60;99.90;;;;;;6188187;23;20168;-86
2021/05/13 00:04:20;;;;;;;22.30;15.50;;;12.60;99.90;;;;;;6185471;23;20204;-86
2021/05/13 00:06:45;;;;;;;20.97;15.77;;;12.60;99.90;;;;;;6209982;23;20175;-86
2021/05/13 00:09:11;;;;;;;19.03;14.47;;;12.60;99.90;;;;;;6183671;23;20560;-87
2021/05/13 00:11:38;;;;;;;23.87;15.47;;;12.60;99.90;;;;;;6187087;23;20160;-86
2021/05/13 00:14:06;;;;;;;19.40;15.30;;;12.50;99.90;;;;;;6185531;22;20196;-85
2021/05/13 00:16:34;;;;;;;21.77;15.13;;;12.60;99.90;;;;;;6185041;22;20587;-87
2021/05/13 00:19:06;;;;;;;19.57;15.67;;;12.60;99.90;;;;;;6185020;22;20604;-86
2021/05/13 00:21:32;;;;;;;19.00;14.17;;;12.50;99.90;;;;;;6186948;23;20567;-85
2021/05/13 00:23:58;;;;;;;20.87;14.80;;;12.70;99.90;;;;;;6183688;22;20907;-86
2021/05/13 00:26:41;;;;;;;18.20;15.00;;;12.60;99.90;;;;;;6187126;23;21114;-87
2021/05/13 00:29:11;;;;;;;20.87;15.07;;;12.60;99.90;;;;;;6188070;22;20537;-86
2021/05/13 00:31:38;;;;;;;24.17;16.83;;;12.60;99.90;;;;;;6186481;23;20560;-85
2021/05/13 00:34:04;;;;;;;21.33;14.60;;;12.70;99.90;;;;;;6186733;22;20917;-85
2021/05/13 00:36:31;;;;;;;21.17;14.30;;;12.70;99.90;;;;;;6186991;22;20609;-85
2021/05/13 00:38:57;;;;;;;22.53;15.30;;;12.70;99.90;;;;;;6185445;22;20983;-85
2021/05/13 00:41:23;;;;;;;20.13;15.90;;;12.60;99.90;;;;;;6186110;23;21062;-85
2021/05/13 00:43:49;;;;;;;23.17;16.13;;;12.60;99.90;;;;;;6212364;23;20579;-84
2021/05/13 00:46:15;;;;;;;20.00;15.80;;;12.60;99.90;;;;;;6187664;23;20177;-86
2021/05/13 00:48:43;;;;;;;24.77;16.83;;;12.60;99.90;;;;;;6188071;23;20594;-85
2021/05/13 00:51:08;;;;;;;22.10;15.70;;;12.60;99.90;;;;;;6214118;23;20187;-87
2021/05/13 00:53:34;;;;;;;22.73;16.77;;;12.60;99.90;;;;;;6187129;22;20687;-85
2021/05/13 00:56:01;;;;;;;24.63;16.20;;;12.60;99.90;;;;;;6185437;23;20591;-86
2021/05/13 00:58:29;;;;;;;23.90;17.57;;;12.40;99.90;;;;;;6185523;22;20167;-87
2021/05/13 01:03:23;;;;;;;24.10;17.33;;;12.40;99.90;;;;;;6213900;23;20591;-85
2021/05/13 01:05:48;;;;;;;21.33;16.90;;;12.40;99.90;;;;;;6183290;23;20603;-85
2021/05/13 01:08:14;;;;;;;22.00;16.67;;;12.40;99.90;;;;;;6186733;23;20202;-85
2021/05/13 01:10:40;;;;;;;22.93;17.73;;;12.40;99.90;;;;;;6184527;23;20267;-85
2021/05/13 01:13:15;;;;;;;26.23;16.93;;;12.40;99.90;;;;;;6183308;23;20160;-84
2021/05/13 01:15:53;;;;;;;21.90;15.50;;;12.40;99.90;;;;;;6183561;22;20586;-84
2021/05/13 01:18:24;;;;;;;20.33;16.77;;;12.40;99.90;;;;;;6184910;23;20568;-86
2021/05/13 01:20:50;;;;;;;21.57;16.50;;;12.40;99.90;;;;;;6184986;23;20724;-85
2021/05/13 01:23:17;;;;;;;23.10;17.67;;;12.40;99.90;;;;;;6181261;23;20644;-85
2021/05/13 01:25:51;;;;;;;24.30;17.57;;;12.50;99.90;;;;;;6184484;22;20602;-86
2021/05/13 01:28:16;;;;;;;20.27;16.53;;;12.40;99.90;;;;;;6211346;22;20534;-84
2021/05/13 01:30:44;;;;;;;23.67;17.57;;;12.50;99.90;;;;;;6183249;23;20686;-85
2021/05/13 01:33:11;;;;;;;23.27;18.40;;;12.40;99.90;;;;;;6183170;22;20165;-86
2021/05/13 01:35:38;;;;;;;23.47;16.47;;;12.30;99.90;;;;;;6183392;22;20699;-85
2021/05/13 01:38:10;;;;;;;22.70;16.13;;;12.30;99.90;;;;;;6183773;22;20547;-85
2021/05/13 01:40:36;;;;;;;21.53;16.20;;;12.30;99.90;;;;;;6183435;22;20623;-86
2021/05/13 01:43:03;;;;;;;21.80;15.93;;;12.30;99.90;;;;;;6183172;22;20643;-86
2021/05/13 01:45:29;;;;;;;22.00;16.13;;;12.30;99.90;;;;;;6182054;22;20652;-87
2021/05/13 01:48:01;;;;;;;20.57;14.90;;;12.30;99.90;;;;;;6184008;22;20559;-86
2021/05/13 01:50:34;;;;;;;20.93;16.10;;;12.30;99.90;;;;;;6184502;22;20615;-86
2021/05/13 01:53:02;;;;;;;20.93;15.43;;;12.30;99.90;;;;;;6158940;22;20556;-85
2021/05/13 01:55:28;;;;;;;22.57;14.93;;;12.30;99.90;;;;;;6182138;22;20675;-85
2021/05/13 01:57:54;;;;;;;20.60;15.27;;;12.30;99.90;;;;;;6184864;23;20559;-86
2021/05/13 02:00:20;;;;;;;21.87;15.77;;;12.30;99.90;;;;;;6209252;23;20171;-85
2021/05/13 02:02:48;;;;;;;21.10;16.67;;;12.30;99.90;;;;;;6182869;22;20168;-84
2021/05/13 02:05:14;;;;;;;21.37;14.97;;;12.40;99.90;;;;;;6183648;22;20615;-84
2021/05/13 02:07:42;;;;;;;23.03;17.03;;;12.20;99.90;;;;;;6183771;22;21094;-85
2021/05/13 02:10:10;;;;;;;22.80;16.27;;;12.20;99.90;;;;;;6183000;23;20975;-84
2021/05/13 02:12:38;;;;;;;19.47;15.83;;;12.20;99.90;;;;;;6204722;22;20663;-87
2021/05/13 02:15:06;;;;;;;19.60;15.90;;;12.20;99.90;;;;;;6229938;22;20644;-88
2021/05/13 02:17:32;;;;;;;24.87;15.63;;;12.20;99.90;;;;;;6204434;23;20564;-89
2021/05/13 02:19:58;;;;;;;21.27;16.27;;;12.20;99.90;;;;;;6191682;23;20648;-85
2021/05/13 02:22:23;;;;;;;20.60;15.33;;;12.20;99.90;;;;;;6191047;23;20247;-84
2021/05/13 02:24:49;;;;;;;22.37;15.50;;;12.20;99.90;;;;;;6187905;23;20204;-87
2021/05/13 02:27:14;;;;;;;20.83;15.50;;;12.20;99.90;;;;;;6189745;23;20205;-85
2021/05/13 02:29:40;;;;;;;22.63;15.13;;;12.20;99.90;;;;;;6173927;23;21824;-64
2021/05/13 02:32:05;;;;;;;20.90;15.77;;;12.20;99.90;;;;;;6172193;22;20145;-65
2021/05/13 02:34:31;;;;;;;21.03;15.73;;;12.20;99.90;;;;;;6143054;22;20544;-63
2021/05/13 02:36:56;;;;;;;20.70;14.87;;;12.30;99.90;;;;;;6182990;22;20248;-63
2021/05/13 02:39:24;;;;;;;21.80;16.40;;;12.30;99.90;;;;;;6192208;23;20173;-64
2021/05/13 02:41:50;;;;;;;20.00;15.63;;;12.20;99.90;;;;;;6198037;23;20606;-64
2021/05/13 02:44:15;;;;;;;22.53;15.23;;;12.20;99.90;;;;;;6213397;23;20595;-63
2021/05/13 02:46:41;;;;;;;22.00;15.70;;;12.30;99.90;;;;;;6211548;23;20358;-64
2021/05/13 02:49:06;;;;;;;19.23;14.97;;;12.20;99.90;;;;;;6201899;23;20152;-63
2021/05/13 02:51:32;;;;;;;23.30;16.13;;;12.20;99.90;;;;;;6169975;23;20221;-63
2021/05/13 02:53:57;;;;;;;19.50;15.70;;;12.20;99.90;;;;;;6201562;23;20200;-64
2021/05/13 02:56:23;;;;;;;20.80;15.00;;;12.20;99.90;;;;;;6197205;23;20682;-63
2021/05/13 02:58:50;;;;;;;21.17;16.47;;;12.30;99.90;;;;;;6196615;23;20157;-64
2021/05/13 03:03:50;;;;;;;22.60;17.00;;;12.20;99.90;;;;;;6200253;23;20739;-64
2021/05/13 03:06:16;;;;;;;22.17;16.47;;;12.20;99.90;;;;;;6176788;23;20587;-64
2021/05/13 03:08:46;;;;;;;21.97;15.80;;;12.20;99.90;;;;;;6199131;23;20620;-63
2021/05/13 03:11:11;;;;;;;23.60;16.30;;;12.20;99.90;;;;;;6197353;23;20583;-63
2021/05/13 03:13:38;;;;;;;23.80;17.63;;;12.20;99.90;;;;;;6197430;23;20660;-64
2021/05/13 03:16:03;;;;;;;23.93;16.43;;;12.20;99.90;;;;;;6194291;23;20566;-64
2021/05/13 03:18:32;;;;;;;21.70;17.80;;;12.20;99.90;;;;;;6176922;23;20562;-64
2021/05/13 03:21:20;;;;;;;22.07;17.03;;;12.20;99.90;;;;;;6197175;22;20535;-64
2021/05/13 03:23:54;;;;;;;24.47;16.97;;;12.20;99.90;;;;;;6201186;23;21136;-64
2021/05/13 03:29:06;;;;;;;24.73;16.80;;;12.20;99.90;;;;;;6209765;23;20515;-63
2021/05/13 03:31:32;;;;;;;26.27;17.97;;;12.10;99.90;;;;;;6225796;22;21020;-63
2021/05/13 03:34:01;;;;;;;23.20;17.60;;;12.10;99.90;;;;;;6203730;23;20215;-64
2021/05/13 03:36:32;;;;;;;24.87;17.17;;;12.10;99.90;;;;;;6171579;22;20180;-64
2021/05/13 03:38:59;;;;;;;26.43;17.90;;;12.10;99.90;;;;;;6202527;23;21058;-66
2021/05/13 03:41:24;;;;;;;23.17;17.23;;;12.10;99.90;;;;;;6202376;23;20579;-63
2021/05/13 03:43:52;;;;;;;26.00;17.40;;;12.10;99.90;;;;;;6174627;23;20831;-64
2021/05/13 03:46:18;;;;;;;25.10;17.03;;;12.10;99.90;;;;;;6202624;23;20516;-64
2021/05/13 03:48:43;;;;;;;28.63;18.30;;;12.10;99.90;;;;;;6200211;23;20630;-63
2021/05/13 03:51:09;;;;;;;27.93;17.57;;;12.10;99.90;;;;;;6203551;23;20176;-63
2021/05/13 03:53:39;;;;;;;22.50;17.47;;;12.10;99.90;;;;;;6199560;23;20468;-64
2021/05/13 03:56:05;;;;;;;23.37;18.30;;;12.10;99.90;;;;;;6201606;23;20173;-64
2021/05/13 03:58:35;;;;;;;23.93;16.27;;;12.10;99.90;;;;;;6201975;23;20559;-64
2021/05/13 04:01:10;;;;;;;24.63;17.13;;;12.10;99.90;;;;;;6196556;22;20172;-64
2021/05/13 04:03:36;;;;;;;24.53;16.50;;;12.10;99.90;;;;;;6194177;23;21026;-63
2021/05/13 04:06:01;;;;;;;23.17;17.40;;;12.10;99.90;;;;;;6172338;23;20624;-65
2021/05/13 04:08:30;;;;;;;26.40;16.60;;;12.10;99.90;;;;;;6195229;23;20635;-64
2021/05/13 04:10:56;;;;;;;25.90;18.13;;;12.10;99.90;;;;;;6197297;23;20507;-64
2021/05/13 04:13:21;;;;;;;23.33;16.20;;;12.10;99.90;;;;;;6194602;23;20601;-63
2021/05/13 04:15:48;;;;;;;23.60;16.30;;;12.10;99.90;;;;;;6200782;23;20180;-63
2021/05/13 04:18:14;;;;;;;26.00;17.80;;;12.10;99.90;;;;;;6204378;23;20169;-63
2021/05/13 04:20:43;;;;;;;22.97;16.70;;;12.10;99.90;;;;;;6202446;23;20534;-63
2021/05/13 04:23:11;;;;;;;24.20;17.90;;;12.10;99.90;;;;;;6198235;23;20896;-64
2021/05/13 04:25:38;;;;;;;22.97;16.57;;;12.10;99.90;;;;;;6197337;23;21147;-64
2021/05/13 04:28:04;;;;;;;20.60;16.00;;;12.20;99.90;;;;;;6202004;23;20536;-64
2021/05/13 04:30:30;;;;;;;23.87;17.73;;;12.20;99.90;;;;;;6201685;23;20656;-65
2021/05/13 04:32:56;;;;;;;22.07;16.30;;;12.20;99.90;;;;;;6170513;22;21081;-66
2021/05/13 04:35:21;;;;;;;25.50;16.63;;;12.20;99.90;;;;;;6199635;23;20523;-64
2021/05/13 04:37:47;;;;;;;22.77;16.47;;;12.10;99.90;;;;;;6172592;23;20233;-63
2021/05/13 04:40:15;;;;;;;21.10;15.47;;;12.10;99.90;;;;;;6199763;23;20156;-63
2021/05/13 04:42:41;;;;;;;21.70;16.17;;;12.10;99.90;;;;;;6209148;22;20187;-65
2021/05/13 04:45:07;;;;;;;21.33;15.00;;;12.10;99.90;;;;;;6214013;23;20591;-62
2021/05/13 04:50:11;;;;;;;20.37;15.90;;;12.10;99.90;;;;;;6218604;23;20559;-63
2021/05/13 04:52:40;;;;;;;20.53;16.20;;;12.10;99.90;;;;;;6202921;23;21058;-63
2021/05/13 04:55:07;;;;;;;21.40;15.37;;;12.10;99.90;;;;;;6200522;23;21226;-63
2021/05/13 04:57:35;;;;;;;21.33;15.57;;;12.10;99.90;;;;;;6204869;23;20571;-62
2021/05/13 05:00:03;;;;;;;19.83;14.03;;;12.10;99.90;;;;;;6205196;23;20536;-63
2021/05/13 05:02:31;;;;;;;17.80;14.60;;;12.10;99.90;;;;;;6176816;22;20662;-63
2021/05/13 05:04:57;;;;;;;18.47;15.50;;;12.10;99.90;;;;;;6174260;23;20622;-64
2021/05/13 05:07:22;;;;;;;18.60;13.87;;;12.10;99.90;;;;;;6202616;23;20571;-63
2021/05/13 05:09:48;;;;;;;18.63;15.13;;;12.10;99.90;;;;;;6202367;23;20172;-65
2021/05/13 05:12:16;;;;;;;21.13;15.40;;;12.00;99.90;;;;;;6197521;23;20843;-64
2021/05/13 05:14:43;;;;;;;19.70;14.50;;;12.10;99.90;;;;;;6200063;23;20696;-63
2021/05/13 05:17:09;;;;;;;18.20;14.50;;;12.10;99.90;;;;;;6202924;23;20584;-64
2021/05/13 05:19:35;;;;;;;21.37;15.47;;;12.10;99.90;;;;;;6202292;23;20639;-64
2021/05/13 05:22:02;;;;;;;21.57;14.17;;;12.10;99.90;;;;;;6199953;23;20172;-63
2021/05/13 05:24:28;;;;;;;22.50;15.90;;;12.10;99.90;;;;;;6200328;23;20591;-64
2021/05/13 05:26:54;;;;;;;19.27;13.80;;;12.10;99.90;;;;;;6171727;22;21200;-64
2021/05/13 05:29:19;;;;;;;20.60;13.87;;;12.20;99.90;;;;;;6172552;23;20160;-62
2021/05/13 05:31:45;;;;;;;16.67;13.17;;;12.30;99.90;;;;;;6172601;23;20583;-64
2021/05/13 05:34:10;;;;;;;19.90;14.90;;;12.20;99.90;;;;;;6173650;23;20467;-64
2021/05/13 05:36:36;;;;;;;18.03;14.80;;;12.20;99.90;;;;;;6200548;23;20213;-64
2021/05/13 05:39:02;;;;;;;20.40;14.53;;;12.20;99.90;;;;;;6202051;23;20152;-63
2021/05/13 05:41:28;;;;;;;18.90;14.20;;;12.20;99.90;;;;;;6198257;23;20210;-64
2021/05/13 05:43:56;;;;;;;16.63;13.60;;;12.30;99.90;;;;;;6199059;23;20583;-64
2021/05/13 05:46:22;;;;;;;19.73;14.00;;;12.30;99.90;;;;;;6200175;23;20283;-63
2021/05/13 05:48:47;;;;;;;20.40;15.03;;;12.30;99.90;;;;;;6200775;23;20836;-64
2021/05/13 05:51:13;;;;;;;18.97;14.20;;;12.30;99.90;;;;;;6196629;23;20176;-63
2021/05/13 05:53:38;;;;;;;20.60;15.23;;;12.20;99.90;;;;;;6195727;23;20564;-62
2021/05/13 05:56:04;;;;;;;19.23;13.93;;;12.30;99.90;;;;;;6193578;23;20172;-64
2021/05/13 05:58:32;;;;;;;18.67;14.53;;;12.30;99.90;;;;;;6174151;22;20187;-64
2021/05/13 06:00:58;;;;;;;20.70;15.40;;;12.30;99.90;;;;;;6170689;23;20973;-63
2021/05/13 06:03:25;;;;;;;19.73;14.70;;;12.30;99.90;;;;;;6192950;22;20598;-63
2021/05/13 06:05:50;;;;;;;17.47;13.43;;;12.30;99.90;;;;;;6190740;23;20179;-62
2021/05/13 06:08:16;;;;;;;19.83;13.93;;;12.30;99.90;;;;;;6207997;23;20559;-63
2021/05/13 06:10:44;;;;;;;19.60;13.57;;;12.30;99.90;;;;;;6211116;23;20264;-64
2021/05/13 06:13:10;;;;;;;20.27;13.50;;;12.30;99.90;;;;;;6202500;23;20237;-64
2021/05/13 06:15:37;;;;;;;18.07;14.23;;;12.30;99.90;;;;;;6188088;23;20543;-62
2021/05/13 06:18:04;;;;;;;17.67;13.13;;;12.30;99.90;;;;;;6224255;23;20144;-63
2021/05/13 06:20:32;;;;;;;18.93;13.20;;;12.30;99.90;;;;;;6173175;22;21056;-64
2021/05/13 06:22:58;;;;;;;15.60;12.30;;;12.30;99.90;;;;;;6176411;23;20536;-64
2021/05/13 06:25:25;;;;;;;18.50;13.30;;;12.30;99.90;;;;;;6201015;23;20534;-64
2021/05/13 06:27:51;;;;;;;18.03;11.50;;;12.30;99.90;;;;;;6203523;23;20623;-64
2021/05/13 06:30:18;;;;;;;18.63;12.80;;;12.30;99.90;;;;;;6199320;23;21139;-62
2021/05/13 06:32:46;;;;;;;18.67;13.43;;;12.30;99.90;;;;;;6201507;23;20528;-64
2021/05/13 06:35:13;;;;;;;22.53;14.60;;;12.30;99.90;;;;;;6196299;23;20591;-64
2021/05/13 06:37:38;;;;;;;23.07;14.73;;;12.30;99.90;;;;;;6199697;22;20836;-64
2021/05/13 06:40:06;;;;;;;19.10;13.40;;;12.30;99.90;;;;;;6196489;23;20540;-64
2021/05/13 06:42:36;;;;;;;20.53;14.73;;;12.30;99.90;;;;;;6196171;23;20250;-63
2021/05/13 06:45:06;;;;;;;21.80;14.53;;;12.30;99.90;;;;;;6202697;23;20596;-64
2021/05/13 06:47:31;;;;;;;20.70;14.83;;;12.30;99.90;;;;;;6196752;23;20575;-63
2021/05/13 06:49:59;;;;;;;23.83;15.00;;;12.30;99.90;;;;;;6194498;23;20586;-63
2021/05/13 06:52:25;;;;;;;22.10;14.43;;;12.30;99.90;;;;;;6201130;23;20160;-64
2021/05/13 06:54:53;;;;;;;23.87;15.60;;;12.30;99.90;;;;;;6198534;23;20711;-64
2021/05/13 06:57:18;;;;;;;21.80;13.90;;;12.30;99.90;;;;;;6201905;22;20171;-64
2021/05/13 06:59:45;;;;;;;23.87;13.17;;;12.40;99.90;;;;;;6199672;23;20535;-64
2021/05/13 07:02:14;;;;;;;17.37;13.37;;;12.40;99.90;;;;;;6195887;23;20660;-64
2021/05/13 07:04:40;;;;;;;18.90;13.60;;;12.40;99.90;;;;;;6202798;23;20602;-64
2021/05/13 07:07:07;;;;;;;20.63;12.93;;;12.50;99.90;;;;;;6204571;23;20563;-63
2021/05/13 07:09:32;;;;;;;16.27;12.03;;;12.60;99.90;;;;;;6204370;23;20184;-64
2021/05/13 07:11:58;;;;;;;18.13;12.23;;;12.70;99.90;;;;;;6201590;23;21138;-64
2021/05/13 07:14:24;;;;;;;18.33;12.73;;;12.70;99.90;;;;;;6202293;23;20271;-64
2021/05/13 07:16:50;;;;;;;15.17;11.60;;;12.70;99.90;;;;;;6202394;23;20562;-64
2021/05/13 07:19:16;;;;;;;16.63;12.00;;;12.80;99.90;;;;;;6178153;22;20192;-64
2021/05/13 07:21:42;;;;;;;15.97;12.10;;;12.80;99.90;;;;;;6198758;23;21066;-67
2021/05/13 07:24:08;;;;;;;17.60;13.40;;;12.90;99.90;;;;;;6173240;23;20584;-63
2021/05/13 07:26:36;;;;;;;15.70;12.33;;;12.90;99.90;;;;;;6194113;23;20172;-63
2021/05/13 07:29:03;;;;;;;15.43;11.93;;;12.90;99.90;;;;;;6188123;22;20563;-62
2021/05/13 07:31:28;;;;;;;15.70;11.37;;;12.90;99.90;;;;;;6195568;23;21192;-64
2021/05/13 07:33:56;;;;;;;15.50;11.53;;;12.90;99.90;;;;;;6195175;23;20587;-64
2021/05/13 07:36:22;;;;;;;17.03;11.50;;;12.90;99.90;;;;;;6170971;23;20184;-63
2021/05/13 07:38:50;;;;;;;14.80;10.73;;;12.90;99.90;;;;;;6193028;23;21181;-64
2021/05/13 07:41:18;;;;;;;14.07;11.00;;;12.90;99.90;;;;;;6195280;23;20204;-64
2021/05/13 07:43:46;;;;;;;12.93;10.47;;;12.90;99.90;;;;;;6197876;23;20678;-63
2021/05/13 07:46:15;;;;;;;13.53;11.50;;;12.90;99.90;;;;;;6170368;23;21224;-64
2021/05/13 07:48:46;;;;;;;13.20;10.30;;;12.90;99.90;;;;;;6198977;23;20561;-64
2021/05/13 07:51:11;;;;;;;16.17;11.23;;;13.00;99.90;;;;;;6200362;23;21111;-62
2021/05/13 07:53:39;;;;;;;15.00;11.10;;;13.00;99.90;;;;;;6197918;23;20591;-64
2021/05/13 07:56:05;;;;;;;14.77;11.00;;;12.90;99.90;;;;;;6165191;23;20184;-63
2021/05/13 07:58:30;;;;;;;14.40;11.47;;;12.90;99.90;;;;;;6195133;23;20674;-64
2021/05/13 08:00:56;;;;;;;13.80;10.20;;;13.00;99.90;;;;;;6195092;23;20206;-62
2021/05/13 08:03:21;;;;;;;12.60;10.00;;;13.00;99.90;;;;;;6191849;23;20302;-64
2021/05/13 08:05:47;;;;;;;14.10;9.67;;;13.00;99.90;;;;;;6195704;23;20172;-63
2021/05/13 08:08:12;;;;;;;13.20;10.60;;;13.00;99.90;;;;;;6168765;23;20167;-62
2021/05/13 08:10:38;;;;;;;14.50;11.00;;;12.90;99.90;;;;;;6193114;23;20551;-64
2021/05/13 08:13:04;;;;;;;11.67;9.83;;;13.00;99.90;;;;;;6199421;23;20179;-62
2021/05/13 08:15:29;;;;;;;14.50;10.47;;;13.00;99.90;;;;;;6208154;23;20168;-62
2021/05/13 08:17:57;;;;;;;12.00;10.17;;;13.00;99.90;;;;;;6171716;23;20165;-62
2021/05/13 08:20:23;;;;;;;10.37;9.37;;;13.10;99.90;;;;;;6200317;23;20168;-63
2021/05/13 08:22:49;;;;;;;10.50;9.40;;;13.10;99.90;;;;;;6194935;22;20626;-61
2021/05/13 08:25:19;;;;;;;10.20;9.13;;;13.20;99.90;;;;;;6190819;23;20207;-62
2021/05/13 08:27:47;;;;;;;10.10;8.50;;;13.30;99.90;;;;;;6194219;23;20571;-62
2021/05/13 08:30:15;;;;;;;9.93;8.30;;;13.30;99.90;;;;;;6172985;23;20626;-63
2021/05/13 08:32:41;;;;;;;8.10;7.30;;;13.40;99.90;;;;;;6202221;23;20554;-63
2021/05/13 08:35:09;;;;;;;8.17;7.37;;;13.50;99.90;;;;;;6174010;23;20587;-66
2021/05/13 08:37:35;;;;;;;9.80;7.30;;;13.60;99.90;;;;;;6169509;23;20187;-65
2021/05/13 08:40:05;;;;;;;7.33;6.47;;;13.60;99.90;;;;;;6196885;23;20976;-65
2021/05/13 08:42:31;;;;;;;7.40;6.60;;;13.60;99.90;;;;;;6202826;23;20519;-67
2021/05/13 08:44:57;;;;;;;8.73;6.70;;;13.60;99.90;;;;;;6201641;22;20591;-62
2021/05/13 08:47:22;;;;;;;8.90;6.50;;;13.60;99.90;;;;;;6191962;23;20497;-62
2021/05/13 08:49:51;;;;;;;9.17;7.40;;;13.60;99.90;;;;;;6193045;23;20594;-64
2021/05/13 08:52:18;;;;;;;7.83;7.00;;;13.70;99.90;;;;;;6190722;23;20279;-64
2021/05/13 08:54:55;;;;;;;7.03;6.33;;;13.70;99.90;;;;;;6193241;22;20593;-63
2021/05/13 08:57:24;;;;;;;10.47;7.90;;;13.70;99.90;;;;;;6197214;23;20623;-64
2021/05/13 08:59:54;;;;;;;8.53;7.70;;;13.70;99.90;;;;;;6167552;23;20563;-64
2021/05/13 09:02:20;;;;;;;9.50;7.00;;;13.70;99.90;;;;;;6202839;23;20562;-64
2021/05/13 09:04:47;;;;;;;8.23;6.80;;;13.70;99.90;;;;;;6169649;23;20935;-64
2021/05/13 09:07:22;;;;;;;7.80;7.00;;;13.70;99.90;;;;;;6172737;23;20606;-63
2021/05/13 09:10:15;;;;;;;8.17;6.70;;;13.70;99.90;;;;;;6197287;23;20575;-63
2021/05/13 09:12:47;;;;;;;8.70;6.40;;;13.70;99.90;;;;;;6192217;23;20571;-67
2021/05/13 09:15:20;;;;;;;7.83;6.43;;;13.70;99.90;;;;;;6195447;23;20679;-63
2021/05/13 09:18:03;;;;;;;8.40;6.23;;;13.70;99.90;;;;;;6200165;23;20554;-63
2021/05/13 09:20:43;;;;;;;7.40;6.53;;;13.80;99.90;;;;;;6200881;22;20918;-63
2021/05/13 09:23:09;;;;;;;7.33;6.47;;;13.80;99.90;;;;;;6197348;22;20563;-62
2021/05/13 09:25:35;;;;;;;9.40;6.90;;;13.80;99.90;;;;;;6171517;23;20564;-61
2021/05/13 09:28:00;;;;;;;8.40;7.07;;;13.80;99.90;;;;;;6172122;23;20436;-63
2021/05/13 09:30:29;;;;;;;7.87;5.70;;;13.80;99.90;;;;;;6191335;22;20615;-63
2021/05/13 09:32:58;;;;;;;6.87;5.80;;;13.80;99.90;;;;;;6193076;23;20397;-62
2021/05/13 09:35:32;;;;;;;6.80;6.10;;;13.90;99.90;;;;;;6168309;23;20555;-63
2021/05/13 09:38:05;;;;;;;6.77;6.07;;;13.80;99.90;;;;;;6193391;23;20974;-63
2021/05/13 09:40:53;;;;;;;7.90;6.13;;;13.90;99.90;;;;;;6194924;22;20901;-62
2021/05/13 09:43:28;;;;;;;6.83;6.13;;;13.90;99.90;;;;;;6189747;22;20614;-63
2021/05/13 09:45:59;;;;;;;7.97;6.60;;;13.90;99.90;;;;;;6190731;23;20907;-63
2021/05/13 09:48:56;;;;;;;7.07;6.40;;;13.90;99.90;;;;;;6166875;23;20567;-63
2021/05/13 09:51:29;;;;;;;9.33;6.23;;;13.90;99.90;;;;;;6180065;23;20633;-64
2021/05/13 09:54:12;;;;;;;7.30;6.37;;;13.90;99.90;;;;;;6193940;22;20595;-63
2021/05/13 09:56:40;;;;;;;6.17;5.57;;;14.00;99.90;;;;;;6189546;23;20651;-62
2021/05/13 09:59:21;;;;;;;6.30;5.80;;;14.00;99.90;;;;;;6165299;22;20559;-61
2021/05/13 10:01:47;;;;;;;6.47;5.77;;;14.10;99.90;;;;;;6195786;23;20559;-63
2021/05/13 10:04:13;;;;;;;6.60;6.00;;;14.10;99.90;;;;;;6191872;23;20591;-64
2021/05/13 10:06:41;;;;;;;7.60;6.80;;;14.10;99.90;;;;;;6197406;23;20930;-63
2021/05/13 10:09:07;;;;;;;6.20;5.60;;;14.10;99.90;;;;;;6199604;23;20171;-63
2021/05/13 10:11:33;;;;;;;6.47;5.67;;;14.20;99.90;;;;;;6170414;23;20630;-66
2021/05/13 10:14:01;;;;;;;7.17;5.90;;;14.20;99.90;;;;;;6199640;23;21108;-64
2021/05/13 10:16:29;;;;;;;7.00;5.87;;;14.30;99.90;;;;;;6196930;23;20592;-63
2021/05/13 10:19:00;;;;;;;6.27;5.67;;;14.30;99.90;;;;;;6197851;23;20619;-63
2021/05/13 10:21:29;;;;;;;6.40;5.80;;;14.30;99.90;;;;;;6201742;23;20628;-64
2021/05/13 10:23:57;;;;;;;6.30;5.57;;;14.40;99.90;;;;;;6197638;23;20594;-65
2021/05/13 10:26:35;;;;;;;6.30;5.70;;;14.40;99.90;;;;;;6164819;23;20603;-64
2021/05/13 10:29:21;;;;;;;7.97;5.67;;;14.40;99.90;;;;;;6197836;22;20628;-63
2021/05/13 10:32:25;;;;;;;7.43;6.73;;;14.40;99.90;;;;;;6202467;23;20709;-63
2021/05/13 10:34:57;;;;;;;6.03;5.50;;;14.40;99.90;;;;;;6192843;23;20583;-64
2021/05/13 10:37:35;;;;;;;7.67;6.07;;;14.40;99.90;;;;;;6173606;23;20903;-64
2021/05/13 10:40:22;;;;;;;7.83;6.13;;;14.40;99.90;;;;;;6171571;22;20558;-64
2021/05/13 10:43:06;;;;;;;7.47;6.77;;;14.40;99.90;;;;;;6173346;22;20558;-64
2021/05/13 10:45:34;;;;;;;7.20;6.50;;;14.40;99.90;;;;;;6198659;23;20949;-62
2021/05/13 10:48:14;;;;;;;7.23;6.17;;;14.50;99.90;;;;;;6176888;23;20564;-63
2021/05/13 10:50:56;;;;;;;7.63;6.83;;;14.40;99.90;;;;;;6199341;23;20578;-64
2021/05/13 10:53:34;;;;;;;7.80;6.63;;;14.40;99.90;;;;;;6201009;23;20587;-64
2021/05/13 10:56:28;;;;;;;7.23;6.60;;;14.30;99.90;;;;;;6201769;22;20563;-64
2021/05/13 10:59:04;;;;;;;9.30;7.40;;;14.30;99.90;;;;;;6179140;22;21103;-62
2021/05/13 11:01:42;;;;;;;7.30;6.50;;;14.30;99.90;;;;;;6203221;23;20581;-63
2021/05/13 11:04:23;;;;;;;7.60;6.37;;;14.30;99.90;;;;;;6206540;22;21217;-65
2021/05/13 11:06:50;;;;;;;7.00;6.30;;;14.30;99.90;;;;;;6213463;22;20562;-64
2021/05/13 11:09:47;;;;;;;7.47;6.77;;;14.30;99.90;;;;;;6191066;23;20559;-64
2021/05/13 11:12:18;;;;;;;7.60;6.40;;;14.30;99.90;;;;;;6220370;22;20505;-63
2021/05/13 11:17:59;;;;;;;6.70;6.00;;;14.30;99.90;;;;;;6219562;23;20559;-63
2021/05/13 11:20:45;;;;;;;8.03;6.40;;;14.30;99.90;;;;;;6188949;22;20555;-63
2021/05/13 11:23:19;;;;;;;6.20;5.60;;;14.20;99.90;;;;;;6170098;23;20911;-64
2021/05/13 11:25:49;;;;;;;6.03;5.27;;;14.30;99.90;;;;;;6197277;22;20916;-64
2021/05/13 11:28:42;;;;;;;6.03;5.40;;;14.20;99.90;;;;;;6166354;23;20609;-64
2021/05/13 11:31:07;;;;;;;6.70;5.10;;;14.30;99.90;;;;;;6171556;23;20664;-64
2021/05/13 11:33:44;;;;;;;6.37;5.73;;;14.30;99.90;;;;;;6196275;23;20583;-63
2021/05/13 11:36:14;;;;;;;6.23;5.63;;;14.30;99.90;;;;;;6183955;23;20183;-65
2021/05/13 11:38:40;;;;;;;6.47;5.67;;;14.30;99.90;;;;;;6193947;23;21045;-63
2021/05/13 11:41:07;;;;;;;5.93;5.33;;;14.30;99.90;;;;;;6169499;23;20559;-63
2021/05/13 11:43:34;;;;;;;7.60;5.53;;;14.30;99.90;;;;;;6200930;23;20591;-63
2021/05/13 11:46:05;;;;;;;6.20;5.33;;;14.40;99.90;;;;;;6173234;23;20690;-65
2021/05/13 11:48:34;;;;;;;6.93;6.27;;;14.30;99.90;;;;;;6169027;23;20563;-62
2021/05/13 11:51:06;;;;;;;6.50;5.57;;;14.30;99.90;;;;;;6197674;23;20582;-64
2021/05/13 11:53:32;;;;;;;6.20;5.60;;;14.30;99.90;;;;;;6166150;23;20587;-64
2021/05/13 11:55:59;;;;;;;5.47;4.93;;;14.30;99.90;;;;;;6164549;23;20933;-64
2021/05/13 11:58:49;;;;;;;6.03;5.50;;;14.30;99.90;;;;;;6177806;23;20602;-64
2021/05/13 12:01:33;;;;;;;6.07;5.50;;;14.40;99.90;;;;;;6149120;22;21120;-65
2021/05/13 12:03:58;;;;;;;6.17;5.57;;;14.30;99.90;;;;;;6202568;22;20654;-64
2021/05/13 12:06:25;;;;;;;6.13;5.53;;;14.30;99.90;;;;;;6202067;22;20574;-64
2021/05/13 12:08:50;;;;;;;5.87;5.17;;;14.20;99.90;;;;;;6199280;23;20160;-65
2021/05/13 12:11:20;;;;;;;7.73;5.10;;;14.20;99.90;;;;;;6201354;23;20571;-65
2021/05/13 12:13:47;;;;;;;5.97;5.30;;;14.20;99.90;;;;;;6172473;23;20192;-65
2021/05/13 12:16:16;;;;;;;6.00;5.50;;;14.20;99.90;;;;;;6199261;23;20658;-64
2021/05/13 12:18:44;;;;;;;6.07;5.47;;;14.30;99.90;;;;;;6203503;23;20543;-65
2021/05/13 12:21:12;;;;;;;6.37;5.60;;;14.30;99.90;;;;;;6178670;23;20554;-65
2021/05/13 12:23:44;;;;;;;6.27;5.57;;;14.40;99.90;;;;;;6175213;23;20587;-63
2021/05/13 12:26:12;;;;;;;8.23;7.43;;;14.30;99.90;;;;;;6200403;23;20710;-66
2021/05/13 12:28:41;;;;;;;7.77;6.33;;;14.30;99.90;;;;;;6191529;23;20556;-65
2021/05/13 12:31:09;;;;;;;7.60;6.90;;;14.30;99.90;;;;;;6191840;23;20634;-63
2021/05/13 12:33:40;;;;;;;7.30;6.60;;;14.30;99.90;;;;;;6193029;22;20587;-64
2021/05/13 12:36:11;;;;;;;7.17;6.47;;;14.40;99.90;;;;;;6161518;23;20582;-65
2021/05/13 12:38:43;;;;;;;7.60;6.90;;;14.50;99.90;;;;;;6193573;23;20496;-64
2021/05/13 12:41:17;;;;;;;7.70;6.97;;;14.30;99.90;;;;;;6196707;22;21163;-64
2021/05/13 12:43:50;;;;;;;7.13;6.43;;;14.30;99.90;;;;;;6169109;23;21107;-65
2021/05/13 12:46:45;;;;;;;7.10;6.40;;;14.20;99.90;;;;;;6195972;23;20590;-65
2021/05/13 12:49:20;;;;;;;7.67;6.97;;;14.20;99.90;;;;;;6171589;22;20571;-64
2021/05/13 12:52:10;;;;;;;7.03;6.43;;;14.30;99.90;;;;;;6172364;23;20913;-63
2021/05/13 12:54:40;;;;;;;6.77;6.17;;;14.30;99.90;;;;;;6193626;23;20614;-65
2021/05/13 12:57:18;;;;;;;6.23;5.40;;;14.30;99.90;;;;;;6195521;23;20930;-64